createdAt,value
2022-08-25T00:00:17.005Z,13.15
2022-08-25T00:02:54.904Z,13.43
2022-08-25T00:05:24.743Z,12.90
2022-08-25T00:07:51.999Z,14.50
2022-08-25T00:10:19.559Z,14.95
2022-08-25T00:12:46.946Z,12.30
2022-08-25T00:15:14.208Z,14.10
2022-08-25T00:17:41.460Z,13.93
2022-08-25T00:20:09.411Z,12.60
2022-08-25T00:22:38.591Z,20.02
2022-08-25T00:25:06.440Z,11.95
2022-08-25T00:27:33.942Z,13.30
2022-08-25T00:30:01.411Z,12.55
2022-08-25T00:32:28.650Z,14.77
2022-08-25T00:34:55.863Z,7.03
2022-08-25T00:37:23.118Z,15.55
2022-08-25T00:39:51.814Z,14.25
2022-08-25T00:42:19.129Z,14.82
2022-08-25T00:44:46.732Z,13.57
2022-08-25T00:47:14.184Z,11.75
2022-08-25T00:49:43.564Z,15.18
2022-08-25T00:52:13.119Z,15.30
2022-08-25T00:54:43.322Z,9.60
2022-08-25T00:57:34.601Z,14.40
2022-08-25T01:00:04.630Z,12.88
2022-08-25T01:02:31.944Z,15.00
2022-08-25T01:04:59.226Z,13.13
2022-08-25T01:07:26.458Z,15.05
2022-08-25T01:09:53.916Z,12.48
2022-08-25T01:12:23.166Z,12.32
2022-08-25T01:14:51.768Z,12.45
2022-08-25T01:17:19.107Z,14.77
2022-08-25T01:19:46.315Z,13.15
2022-08-25T01:22:14.915Z,14.98
2022-08-25T01:24:45.513Z,9.68
2022-08-25T01:27:12.959Z,13.63
2022-08-25T01:29:40.523Z,12.20
2022-08-25T01:32:09.043Z,12.05
2022-08-25T01:34:37.906Z,12.20
2022-08-25T01:37:05.595Z,12.02
2022-08-25T01:39:34.807Z,10.77
2022-08-25T01:42:19.455Z,13.27
2022-08-25T01:44:47.878Z,13.75
2022-08-25T01:47:15.526Z,13.30
2022-08-25T01:49:42.843Z,9.55
2022-08-25T01:52:12.007Z,11.55
2022-08-25T01:54:40.575Z,14.90
2022-08-25T01:57:08.013Z,16.23
2022-08-25T01:59:35.427Z,12.88
2022-08-25T02:02:04.784Z,13.02
2022-08-25T02:04:33.063Z,13.65
2022-08-25T02:07:02.158Z,10.63
2022-08-25T02:09:29.491Z,15.30
2022-08-25T02:12:20.415Z,15.35
2022-08-25T02:15:34.396Z,10.95
2022-08-25T02:21:45.565Z,13.30
2022-08-25T02:27:37.199Z,10.85
2022-08-25T02:30:05.083Z,11.82
2022-08-25T02:32:32.412Z,12.45
2022-08-25T02:34:59.679Z,9.05
2022-08-25T02:37:27.019Z,10.57
2022-08-25T02:39:54.319Z,12.30
2022-08-25T02:42:21.656Z,9.60
2022-08-25T02:44:50.215Z,10.48
2022-08-25T02:47:17.508Z,12.02
2022-08-25T02:49:50.009Z,13.40
2022-08-25T02:52:17.409Z,12.40
2022-08-25T02:54:44.804Z,9.23
2022-08-25T02:57:12.056Z,11.95
2022-08-25T02:59:39.295Z,11.23
2022-08-25T03:02:08.206Z,9.00
2022-08-25T03:04:35.490Z,12.10
2022-08-25T03:07:02.999Z,10.65
2022-08-25T03:09:30.255Z,12.23
2022-08-25T03:12:01.537Z,10.90
2022-08-25T03:14:28.851Z,12.32
2022-08-25T03:16:56.117Z,7.30
2022-08-25T03:19:24.783Z,7.65
2022-08-25T03:21:51.990Z,10.38
2022-08-25T03:24:19.217Z,10.18
2022-08-25T03:26:46.462Z,8.65
2022-08-25T03:29:13.821Z,9.05
2022-08-25T03:31:41.104Z,9.52
2022-08-25T03:34:08.414Z,10.52
2022-08-25T03:36:37.122Z,7.35
2022-08-25T03:39:04.611Z,10.90
2022-08-25T03:41:33.038Z,9.38
2022-08-25T03:44:06.575Z,10.60
2022-08-25T03:46:35.052Z,7.68
2022-08-25T03:49:03.014Z,10.20
2022-08-25T03:51:31.998Z,8.23
2022-08-25T03:54:00.983Z,10.25
2022-08-25T03:56:28.536Z,10.18
2022-08-25T03:59:26.641Z,14.57
2022-08-25T04:02:16.222Z,7.47
2022-08-25T04:04:43.501Z,10.05
2022-08-25T04:07:10.926Z,9.10
2022-08-25T04:09:39.887Z,8.38
2022-08-25T04:12:07.372Z,9.52
2022-08-25T04:14:36.300Z,9.95
2022-08-25T04:17:04.134Z,11.05
2022-08-25T04:19:31.378Z,11.10
2022-08-25T04:21:58.663Z,9.60
2022-08-25T04:24:26.278Z,11.80
2022-08-25T04:26:54.860Z,9.93
2022-08-25T04:29:23.806Z,9.88
2022-08-25T04:32:01.054Z,9.70
2022-08-25T04:34:30.390Z,10.25
2022-08-25T04:36:58.999Z,9.77
2022-08-25T04:39:26.218Z,10.55
2022-08-25T04:41:57.381Z,10.63
2022-08-25T04:44:24.707Z,9.75
2022-08-25T04:46:51.930Z,7.57
2022-08-25T04:49:19.340Z,10.90
2022-08-25T04:51:46.660Z,8.88
2022-08-25T04:54:15.309Z,9.07
2022-08-25T04:56:42.772Z,10.27
2022-08-25T04:59:12.166Z,10.27
2022-08-25T05:01:40.261Z,11.60
2022-08-25T05:04:08.903Z,7.85
2022-08-25T05:06:42.468Z,9.20
2022-08-25T05:09:11.900Z,8.70
2022-08-25T05:11:39.474Z,6.78
2022-08-25T05:14:06.757Z,9.20
2022-08-25T05:16:35.542Z,8.90
2022-08-25T05:19:02.815Z,6.95
2022-08-25T05:21:30.058Z,8.98
2022-08-25T05:23:57.687Z,11.25
2022-08-25T05:26:25.880Z,10.68
2022-08-25T05:28:54.403Z,9.60
2022-08-25T05:31:22.557Z,8.32
2022-08-25T05:33:51.282Z,10.05
2022-08-25T05:36:19.080Z,9.32
2022-08-25T05:38:46.689Z,9.07
2022-08-25T05:41:14.678Z,9.30
2022-08-25T05:43:42.691Z,9.43
2022-08-25T05:46:10.159Z,9.05
2022-08-25T05:48:37.499Z,10.25
2022-08-25T05:51:08.164Z,10.68
2022-08-25T05:53:35.954Z,9.63
2022-08-25T05:56:03.551Z,8.73
2022-08-25T05:58:31.274Z,2.10
2022-08-25T06:00:59.682Z,8.77
2022-08-25T06:03:27.577Z,11.60
2022-08-25T06:05:54.871Z,7.65
2022-08-25T06:08:23.451Z,11.20
2022-08-25T06:10:52.707Z,11.23
2022-08-25T06:13:28.643Z,10.43
2022-08-25T06:15:57.906Z,9.43
2022-08-25T06:18:25.191Z,8.82
2022-08-25T06:20:52.456Z,7.53
2022-08-25T06:23:19.777Z,9.23
2022-08-25T06:25:51.615Z,12.65
2022-08-25T06:28:18.846Z,13.40
2022-08-25T06:30:46.154Z,8.57
2022-08-25T06:33:13.794Z,11.13
2022-08-25T06:35:42.400Z,10.35
2022-08-25T06:38:09.718Z,8.95
2022-08-25T06:40:37.183Z,9.38
2022-08-25T06:43:05.836Z,8.60
2022-08-25T06:45:33.036Z,9.82
2022-08-25T06:48:00.418Z,7.40
2022-08-25T06:50:27.687Z,9.57
2022-08-25T06:55:44.281Z,13.45
2022-08-25T06:58:12.895Z,9.10
2022-08-25T07:00:40.210Z,9.48
2022-08-25T07:03:08.152Z,9.88
2022-08-25T07:05:43.589Z,8.80
2022-08-25T07:08:12.166Z,10.45
2022-08-25T07:10:49.146Z,8.38
2022-08-25T07:13:17.879Z,11.90
2022-08-25T07:15:45.386Z,9.80
2022-08-25T07:18:13.836Z,9.48
2022-08-25T07:20:41.605Z,13.63
2022-08-25T07:23:08.965Z,11.35
2022-08-25T07:25:36.258Z,12.43
2022-08-25T07:30:51.614Z,10.15
2022-08-25T07:33:19.062Z,13.40
2022-08-25T07:35:46.564Z,8.80
2022-08-25T07:38:19.642Z,7.72
2022-08-25T07:40:53.447Z,11.27
2022-08-25T07:43:21.915Z,10.75
2022-08-25T07:45:50.565Z,11.02
2022-08-25T07:48:18.436Z,8.98
2022-08-25T07:50:46.365Z,7.82
2022-08-25T07:53:13.992Z,8.45
2022-08-25T07:55:41.792Z,8.10
2022-08-25T07:58:12.621Z,4.28
2022-08-25T08:00:40.412Z,7.20
2022-08-25T08:03:19.700Z,7.28
2022-08-25T08:05:58.459Z,10.38
2022-08-25T08:08:54.714Z,13.13
2022-08-25T08:11:30.148Z,5.90
2022-08-25T08:13:58.812Z,9.50
2022-08-25T08:16:28.029Z,4.45
2022-08-25T08:18:57.058Z,5.95
2022-08-25T08:21:25.949Z,8.30
2022-08-25T08:23:58.870Z,10.02
2022-08-25T08:29:23.559Z,5.30
2022-08-25T08:31:51.031Z,7.28
2022-08-25T08:34:19.703Z,3.85
2022-08-25T08:36:54.584Z,4.22
2022-08-25T08:39:25.998Z,9.02
2022-08-25T08:42:11.979Z,5.53
2022-08-25T08:44:43.660Z,4.72
2022-08-25T08:47:13.678Z,6.47
2022-08-25T08:49:48.153Z,9.27
2022-08-25T08:52:16.891Z,8.02
2022-08-25T08:54:46.228Z,8.38
2022-08-25T08:57:15.530Z,6.00
2022-08-25T08:59:46.860Z,5.60
2022-08-25T09:02:38.756Z,5.78
2022-08-25T09:05:12.386Z,4.85
2022-08-25T09:07:42.311Z,5.35
2022-08-25T09:10:10.517Z,5.90
2022-08-25T09:16:03.923Z,3.67
2022-08-25T09:18:39.087Z,4.53
2022-08-25T09:21:13.646Z,6.32
2022-08-25T09:23:45.994Z,2.40
2022-08-25T09:26:23.754Z,5.15
2022-08-25T09:28:52.431Z,3.92
2022-08-25T09:31:25.285Z,5.13
2022-08-25T09:33:57.359Z,3.03
2022-08-25T09:36:26.281Z,4.35
2022-08-25T09:38:53.966Z,5.75
2022-08-25T09:41:36.586Z,4.43
2022-08-25T09:44:04.597Z,43.15
2022-08-25T09:52:56.750Z,5.10
2022-08-25T09:55:32.462Z,4.30
2022-08-25T09:58:00.024Z,9.63
2022-08-25T10:00:28.652Z,3.22
2022-08-25T10:03:22.660Z,5.35
2022-08-25T10:08:38.029Z,7.72
2022-08-25T10:11:08.835Z,6.32
2022-08-25T10:13:38.899Z,4.68
2022-08-25T10:16:20.183Z,10.10
2022-08-25T10:19:13.580Z,4.70
2022-08-25T10:22:03.110Z,8.20
2022-08-25T10:24:31.815Z,7.13
2022-08-25T10:27:02.075Z,3.33
2022-08-25T10:29:38.465Z,3.53
2022-08-25T10:32:12.252Z,3.35
2022-08-25T10:34:45.294Z,9.52
2022-08-25T10:37:15.437Z,3.63
2022-08-25T10:39:46.010Z,5.75
2022-08-25T10:42:29.723Z,3.35
2022-08-25T10:45:04.752Z,4.65
2022-08-25T10:47:40.827Z,5.30
2022-08-25T10:50:30.756Z,4.30
2022-08-25T10:57:01.659Z,4.03
2022-08-25T10:59:33.596Z,2.30
2022-08-25T11:02:14.087Z,4.93
2022-08-25T11:04:44.476Z,1.83
2022-08-25T11:07:21.355Z,4.03
2022-08-25T11:12:43.681Z,2.15
2022-08-25T11:15:12.879Z,4.97
2022-08-25T11:17:43.227Z,5.32
2022-08-25T11:20:26.750Z,3.97
2022-08-25T11:23:19.910Z,7.20
2022-08-25T11:26:00.878Z,6.35
2022-08-25T11:28:32.127Z,4.47
2022-08-25T11:31:01.170Z,4.70
2022-08-25T11:33:29.373Z,4.13
2022-08-25T11:35:57.973Z,3.38
2022-08-25T11:38:29.639Z,3.33
2022-08-25T11:41:02.800Z,3.50
2022-08-25T11:43:50.215Z,4.07
2022-08-25T11:46:22.945Z,5.35
2022-08-25T11:49:01.356Z,5.28
2022-08-25T11:51:31.196Z,4.35
2022-08-25T11:54:14.749Z,8.65
2022-08-25T11:57:07.998Z,6.30
2022-08-25T11:59:54.592Z,7.78
2022-08-25T12:02:34.163Z,4.63
2022-08-25T12:05:01.526Z,4.20
2022-08-25T12:07:30.308Z,7.70
2022-08-25T12:10:14.834Z,2.45
2022-08-25T12:13:02.904Z,5.53
2022-08-25T12:15:35.165Z,6.43
2022-08-25T12:18:12.493Z,4.90
2022-08-25T12:20:59.703Z,5.18
2022-08-25T12:23:28.788Z,5.88
2022-08-25T12:25:58.176Z,6.65
2022-08-25T12:28:38.159Z,12.80
2022-08-25T12:31:24.327Z,7.70
2022-08-25T12:34:07.072Z,8.50
2022-08-25T12:36:35.166Z,12.00
2022-08-25T12:39:19.574Z,11.10
2022-08-25T12:41:56.669Z,6.53
2022-08-25T12:44:51.053Z,15.98
2022-08-25T12:47:28.836Z,10.90
2022-08-25T12:50:11.839Z,11.15
2022-08-25T12:52:40.696Z,9.38
2022-08-25T12:55:09.990Z,15.60
2022-08-25T12:57:42.171Z,9.13
2022-08-25T13:00:14.847Z,5.40
2022-08-25T13:02:54.278Z,11.77
2022-08-25T13:09:44.880Z,11.70
2022-08-25T13:12:18.413Z,8.70
2022-08-25T13:14:47.646Z,7.40
2022-08-25T13:17:25.544Z,4.10
2022-08-25T13:19:52.867Z,6.80
2022-08-25T13:22:20.725Z,11.63
2022-08-25T13:24:50.621Z,5.13
2022-08-25T13:27:25.536Z,5.00
2022-08-25T13:29:53.934Z,5.30
2022-08-25T13:32:26.619Z,4.28
2022-08-25T13:35:08.918Z,12.55
2022-08-25T13:37:36.225Z,12.52
2022-08-25T13:40:11.197Z,19.50
2022-08-25T13:42:42.505Z,18.35
2022-08-25T13:45:13.319Z,17.13
2022-08-25T13:47:45.181Z,12.90
2022-08-25T13:50:21.359Z,14.70
2022-08-25T13:52:50.946Z,16.33
2022-08-25T13:55:27.325Z,15.82
2022-08-25T13:57:57.005Z,16.33
2022-08-25T14:00:31.822Z,14.25
2022-08-25T14:03:00.711Z,11.13
2022-08-25T14:05:33.726Z,16.17
2022-08-25T14:11:04.049Z,14.40
2022-08-25T14:13:34.895Z,15.63
2022-08-25T14:16:09.389Z,14.50
2022-08-25T14:18:36.686Z,12.93
2022-08-25T14:21:22.651Z,9.68
2022-08-25T14:23:51.704Z,20.65
2022-08-25T14:26:19.868Z,15.93
2022-08-25T14:28:48.569Z,17.10
2022-08-25T14:31:30.248Z,16.65
2022-08-25T14:33:58.930Z,17.83
2022-08-25T14:36:26.564Z,19.15
2022-08-25T14:38:56.922Z,12.45
2022-08-25T14:41:24.964Z,22.23
2022-08-25T14:43:53.599Z,22.15
2022-08-25T14:46:21.832Z,18.33
2022-08-25T14:48:55.552Z,17.60
2022-08-25T14:51:27.125Z,23.63
2022-08-25T14:53:55.446Z,23.15
2022-08-25T14:56:22.911Z,17.95
2022-08-25T14:58:54.053Z,14.48
2022-08-25T15:01:28.541Z,20.10
2022-08-25T15:03:59.014Z,20.05
2022-08-25T15:06:26.463Z,22.40
2022-08-25T15:08:54.085Z,27.40
2022-08-25T15:11:21.399Z,28.15
2022-08-25T15:13:49.752Z,26.35
2022-08-25T15:16:20.846Z,25.60
2022-08-25T15:18:49.739Z,25.88
2022-08-25T15:21:17.750Z,29.90
2022-08-25T15:24:03.905Z,23.35
2022-08-25T15:26:57.519Z,19.77
2022-08-25T15:29:25.537Z,15.23
2022-08-25T15:31:53.058Z,22.73
2022-08-25T15:34:21.922Z,21.55
2022-08-25T15:36:49.439Z,21.83
2022-08-25T15:39:17.953Z,10.30
2022-08-25T15:44:53.308Z,17.52
2022-08-25T15:47:21.299Z,20.83
2022-08-25T15:49:49.908Z,20.90
2022-08-25T15:52:17.426Z,25.30
2022-08-25T15:54:46.193Z,21.00
2022-08-25T15:57:18.349Z,14.93
2022-08-25T15:59:52.255Z,13.35
2022-08-25T16:02:20.773Z,19.63
2022-08-25T16:04:49.583Z,20.63
2022-08-25T16:07:17.059Z,15.20
2022-08-25T16:09:44.372Z,14.00
2022-08-25T16:15:03.974Z,13.23
2022-08-25T16:17:31.523Z,17.95
2022-08-25T16:20:00.500Z,16.67
2022-08-25T16:22:40.171Z,19.48
2022-08-25T16:25:13.979Z,21.55
2022-08-25T16:27:46.414Z,14.75
2022-08-25T16:30:16.913Z,19.75
2022-08-25T16:32:45.008Z,18.45
2022-08-25T16:35:13.956Z,10.05
2022-08-25T16:37:41.525Z,16.55
2022-08-25T16:40:10.750Z,13.60
2022-08-25T16:42:38.456Z,12.93
2022-08-25T16:45:06.346Z,16.77
2022-08-25T16:47:36.225Z,14.52
2022-08-25T16:50:06.271Z,11.05
2022-08-25T16:52:34.942Z,16.00
2022-08-25T16:55:03.036Z,13.15
2022-08-25T16:57:30.331Z,13.63
2022-08-25T16:59:57.571Z,12.20
2022-08-25T17:02:24.874Z,14.18
2022-08-25T17:04:52.467Z,15.43
2022-08-25T17:07:23.928Z,17.35
2022-08-25T17:09:52.869Z,13.90
2022-08-25T17:12:23.914Z,9.38
2022-08-25T17:14:51.319Z,14.88
2022-08-25T17:17:18.592Z,9.80
2022-08-25T17:19:46.858Z,8.93
2022-08-25T17:22:17.030Z,9.15
2022-08-25T17:24:47.310Z,14.50
2022-08-25T17:27:30.299Z,13.95
2022-08-25T17:30:17.463Z,11.57
2022-08-25T17:32:51.099Z,12.95
2022-08-25T17:35:19.902Z,15.05
2022-08-25T17:37:50.451Z,14.52
2022-08-25T17:40:17.915Z,14.27
2022-08-25T17:42:46.519Z,16.13
2022-08-25T17:45:14.500Z,11.15
2022-08-25T17:47:41.775Z,15.45
2022-08-25T17:50:09.473Z,12.40
2022-08-25T17:52:36.768Z,16.88
2022-08-25T17:55:04.146Z,11.55
2022-08-25T17:57:35.875Z,12.73
2022-08-25T18:00:12.196Z,14.20
2022-08-25T18:02:40.631Z,11.13
2022-08-25T18:05:08.031Z,18.42
2022-08-25T18:07:35.466Z,17.00
2022-08-25T18:10:02.767Z,10.07
2022-08-25T18:12:30.064Z,17.20
2022-08-25T18:14:57.296Z,18.63
2022-08-25T18:17:27.754Z,14.50
2022-08-25T18:19:56.350Z,14.43
2022-08-25T18:22:23.979Z,18.20
2022-08-25T18:24:51.467Z,17.83
2022-08-25T18:27:18.989Z,13.60
2022-08-25T18:29:48.986Z,10.75
2022-08-25T18:32:19.571Z,17.93
2022-08-25T18:34:48.403Z,10.07
2022-08-25T18:37:15.660Z,10.97
2022-08-25T18:39:44.307Z,11.97
2022-08-25T18:42:11.768Z,18.77
2022-08-25T18:44:39.737Z,17.60
2022-08-25T18:47:07.478Z,10.20
2022-08-25T18:49:35.379Z,15.15
2022-08-25T18:52:04.247Z,7.40
2022-08-25T18:54:31.509Z,9.23
2022-08-25T18:56:58.917Z,17.85
2022-08-25T18:59:26.141Z,13.50
2022-08-25T19:01:54.025Z,12.73
2022-08-25T19:04:28.376Z,13.15
2022-08-25T19:06:58.841Z,13.20
2022-08-25T19:09:27.442Z,7.75
2022-08-25T19:11:55.843Z,10.05
2022-08-25T19:14:23.049Z,8.52
2022-08-25T19:16:50.356Z,8.60
2022-08-25T19:19:17.588Z,5.72
2022-08-25T19:21:45.036Z,6.78
2022-08-25T19:24:15.817Z,7.43
2022-08-25T19:26:44.429Z,3.63
2022-08-25T19:29:14.000Z,10.77
2022-08-25T19:31:42.686Z,6.80
2022-08-25T19:34:11.703Z,9.75
2022-08-25T19:36:40.803Z,13.63
2022-08-25T19:39:11.106Z,13.38
2022-08-25T19:41:39.051Z,11.07
2022-08-25T19:44:09.380Z,9.70
2022-08-25T19:46:37.811Z,8.68
2022-08-25T19:49:08.406Z,6.78
2022-08-25T19:51:36.700Z,7.90
2022-08-25T19:54:04.507Z,6.80
2022-08-25T19:56:31.967Z,10.65
2022-08-25T19:59:00.483Z,5.55
2022-08-25T20:01:29.192Z,7.18
2022-08-25T20:03:56.892Z,7.55
2022-08-25T20:06:27.656Z,7.63
2022-08-25T20:08:59.293Z,7.88
2022-08-25T20:11:28.317Z,4.35
2022-08-25T20:13:58.175Z,5.40
2022-08-25T20:16:29.345Z,6.97
2022-08-25T20:18:56.745Z,6.05
2022-08-25T20:21:24.783Z,8.00
2022-08-25T20:23:52.025Z,3.67
2022-08-25T20:26:19.328Z,6.68
2022-08-25T20:28:46.742Z,7.85
2022-08-25T20:31:14.086Z,5.85
2022-08-25T20:33:43.246Z,7.45
2022-08-25T20:36:14.424Z,7.03
2022-08-25T20:38:41.985Z,6.75
2022-08-25T20:41:10.074Z,10.45
2022-08-25T20:43:38.956Z,10.05
2022-08-25T20:46:07.406Z,4.20
2022-08-25T20:48:35.203Z,5.15
2022-08-25T20:51:05.914Z,6.60
2022-08-25T20:53:35.187Z,3.90
2022-08-25T20:56:02.488Z,4.07
2022-08-25T20:58:29.856Z,7.72
2022-08-25T21:00:57.081Z,5.53
2022-08-25T21:03:24.348Z,3.70
2022-08-25T21:05:53.485Z,7.15
2022-08-25T21:08:23.775Z,4.82
2022-08-25T21:10:52.797Z,4.38
2022-08-25T21:13:20.068Z,7.53
2022-08-25T21:15:50.169Z,10.77
2022-08-25T21:18:17.420Z,7.72
2022-08-25T21:20:44.716Z,5.78
2022-08-25T21:23:12.044Z,5.40
2022-08-25T21:25:41.521Z,6.30
2022-08-25T21:28:09.355Z,5.53
2022-08-25T21:30:40.991Z,5.25
2022-08-25T21:33:13.405Z,6.88
2022-08-25T21:35:41.020Z,7.15
2022-08-25T21:38:10.209Z,6.53
2022-08-25T21:40:37.563Z,5.43
2022-08-25T21:43:07.528Z,8.95
2022-08-25T21:45:40.390Z,6.00
2022-08-25T21:48:14.324Z,7.05
2022-08-25T21:50:41.731Z,3.28
2022-08-25T21:53:09.978Z,8.15
2022-08-25T21:55:38.597Z,5.78
2022-08-25T21:58:10.579Z,7.22
2022-08-25T22:00:37.884Z,6.40
2022-08-25T22:03:06.568Z,3.45
2022-08-25T22:05:36.773Z,5.00
2022-08-25T22:08:04.810Z,4.85
2022-08-25T22:10:32.046Z,3.95
2022-08-25T22:12:59.352Z,5.68
2022-08-25T22:15:29.684Z,4.18
2022-08-25T22:17:56.943Z,5.70
2022-08-25T22:20:24.211Z,4.82
2022-08-25T22:22:52.781Z,3.20
2022-08-25T22:25:20.120Z,7.70
2022-08-25T22:27:47.356Z,3.72
2022-08-25T22:30:23.814Z,6.38
2022-08-25T22:32:53.371Z,3.20
2022-08-25T22:35:20.619Z,6.78
2022-08-25T22:37:47.979Z,3.33
2022-08-25T22:40:16.130Z,5.32
2022-08-25T22:42:47.924Z,4.63
2022-08-25T22:45:15.479Z,3.58
2022-08-25T22:47:43.010Z,5.80
2022-08-25T22:50:12.032Z,4.57
2022-08-25T22:52:42.416Z,4.38
2022-08-25T22:55:11.847Z,5.45
2022-08-25T22:57:39.735Z,5.07
2022-08-25T23:00:09.880Z,4.25
2022-08-25T23:02:37.382Z,1.67
2022-08-25T23:05:04.938Z,4.90
2022-08-25T23:07:35.573Z,6.78
2022-08-25T23:10:03.522Z,6.60
2022-08-25T23:12:31.407Z,3.80
2022-08-25T23:14:58.693Z,5.95
2022-08-25T23:17:26.274Z,8.18
2022-08-25T23:19:53.633Z,4.65
2022-08-25T23:22:20.879Z,3.78
2022-08-25T23:24:50.895Z,3.97
2022-08-25T23:27:19.187Z,3.78
2022-08-25T23:29:48.219Z,6.25
2022-08-25T23:32:16.797Z,5.30
2022-08-25T23:34:46.588Z,8.20
2022-08-25T23:37:14.900Z,7.40
2022-08-25T23:39:42.148Z,5.25
2022-08-25T23:42:10.708Z,5.15
2022-08-25T23:44:37.956Z,2.40
2022-08-25T23:47:05.623Z,6.95
2022-08-25T23:49:33.469Z,4.13
2022-08-25T23:52:00.940Z,5.47
2022-08-25T23:54:31.104Z,1.67
2022-08-25T23:56:59.023Z,4.95
2022-08-25T23:59:27.666Z,4.60
